Time;durP1;ratioP1;P1;durP2;ratioP2;P2;SDS_P1;SDS_P2;PMS_P1;PMS_P2;Temp;Humidity;BMP_temperature;BMP_pressure;BME280_temperature;BME280_humidity;BME280_pressure;Samples;Min_cycle;Max_cycle;Signal;HPM_P1;HPM_P2
2021/01/15 00:01:24;;;;;;;0.00;0.00;;;15.30;60.40;;;;;;4197430;28;20052;-40
2021/01/15 00:03:45;;;;;;;0.00;0.00;;;15.30;60.10;;;;;;4197667;28;20048;-40
2021/01/15 00:06:07;;;;;;;0.25;0.25;;;15.30;60.10;;;;;;4197436;28;20434;-40
2021/01/15 00:08:28;;;;;;;0.00;0.00;;;15.30;60.30;;;;;;4197663;28;20060;-40
2021/01/15 00:10:49;;;;;;;0.00;0.00;;;15.20;60.30;;;;;;4196460;28;20049;-41
2021/01/15 00:13:10;;;;;;;0.00;0.00;;;15.20;60.50;;;;;;4197182;28;20131;-40
2021/01/15 00:15:31;;;;;;;0.98;0.98;;;15.30;60.30;;;;;;4197162;28;20123;-40
2021/01/15 00:17:52;;;;;;;0.30;0.30;;;15.50;59.70;;;;;;4190303;28;20127;-40
2021/01/15 00:20:15;;;;;;;0.00;0.00;;;15.60;59.40;;;;;;4197350;28;20076;-40
2021/01/15 00:22:42;;;;;;;0.93;0.82;;;15.60;59.20;;;;;;4197338;28;20536;-40
2021/01/15 00:25:04;;;;;;;0.43;0.43;;;15.60;59.20;;;;;;4197132;28;20102;-40
2021/01/15 00:27:25;;;;;;;0.00;0.00;;;15.60;59.20;;;;;;4197384;28;20056;-40
2021/01/15 00:29:46;;;;;;;0.00;0.00;;;15.60;59.30;;;;;;4196928;28;21880;-40
2021/01/15 00:32:08;;;;;;;0.10;0.10;;;15.70;59.10;;;;;;4196168;28;20534;-40
2021/01/15 00:34:29;;;;;;;0.15;0.15;;;15.80;58.80;;;;;;4196899;28;20135;-40
2021/01/15 00:36:50;;;;;;;0.00;0.00;;;15.80;59.30;;;;;;4196743;28;20533;-40
2021/01/15 00:39:14;;;;;;;0.05;0.05;;;15.80;58.60;;;;;;4197084;28;20573;-40
2021/01/15 00:41:35;;;;;;;0.30;0.30;;;15.80;59.50;;;;;;4196493;28;20078;-40
2021/01/15 00:43:56;;;;;;;0.40;0.40;;;15.70;58.90;;;;;;4197161;28;20118;-40
2021/01/15 00:46:27;;;;;;;1.77;0.35;;;15.60;59.00;;;;;;4196435;28;20063;-40
2021/01/15 00:48:49;;;;;;;0.10;0.10;;;15.60;59.00;;;;;;4196429;28;20532;-40
2021/01/15 00:51:11;;;;;;;0.00;0.00;;;15.60;59.10;;;;;;4196661;28;20055;-41
2021/01/15 00:53:32;;;;;;;0.45;0.45;;;15.50;59.20;;;;;;4196049;28;20059;-40
2021/01/15 00:55:54;;;;;;;;;;;15.40;59.50;;;;;;4194148;28;20472;-41
2021/01/15 00:58:15;;;;;;;0.00;0.00;;;15.30;59.70;;;;;;4195347;28;19928;-41
2021/01/15 01:00:36;;;;;;;0.00;0.00;;;15.40;59.70;;;;;;4196240;28;20494;-40
2021/01/15 01:03:06;;;;;;;0.00;0.00;;;15.40;59.60;;;;;;4195565;28;20051;-41
2021/01/15 01:05:28;;;;;;;0.65;0.65;;;15.30;59.60;;;;;;4196536;28;20056;-41
2021/01/15 01:07:49;;;;;;;0.63;0.63;;;15.30;59.60;;;;;;4196481;28;20520;-40
2021/01/15 01:10:11;;;;;;;0.25;0.25;;;15.40;59.60;;;;;;4196072;28;20060;-39
2021/01/15 01:12:39;;;;;;;0.00;0.00;;;15.50;59.20;;;;;;4196304;28;20059;-42
2021/01/15 01:15:00;;;;;;;1.00;1.00;;;15.70;58.90;;;;;;4195682;28;20123;-40
2021/01/15 01:17:21;;;;;;;0.00;0.00;;;15.70;58.70;;;;;;4179774;28;20502;-42
2021/01/15 01:19:42;;;;;;;0.10;0.10;;;15.70;58.60;;;;;;4179795;28;20138;-41
2021/01/15 01:22:06;;;;;;;0.20;0.20;;;15.80;58.60;;;;;;4179626;28;20509;-41
2021/01/15 01:24:26;;;;;;;0.43;0.43;;;15.90;58.30;;;;;;4194017;28;20053;-40
2021/01/15 01:26:48;;;;;;;;;;;16.00;58.60;;;;;;4196726;28;20083;-40
2021/01/15 01:29:08;;;;;;;0.00;0.00;;;16.00;57.60;;;;;;4195873;28;19971;-40
2021/01/15 01:31:30;;;;;;;0.20;0.20;;;16.00;57.70;;;;;;4179616;28;20485;-40
2021/01/15 01:33:51;;;;;;;0.00;0.00;;;16.00;57.80;;;;;;4179758;28;20080;-40
2021/01/15 01:36:12;;;;;;;0.00;0.00;;;15.90;57.90;;;;;;4188153;28;20118;-40
2021/01/15 01:38:34;;;;;;;;;;;15.90;58.00;;;;;;4196260;28;20052;-40
2021/01/15 01:40:55;;;;;;;;;;;15.80;58.10;;;;;;4196197;28;20019;-40
2021/01/15 01:43:16;;;;;;;0.20;0.20;;;15.70;58.30;;;;;;4195883;28;20433;-40
2021/01/15 01:45:36;;;;;;;0.17;0.17;;;15.60;58.50;;;;;;4189953;28;20126;-41
2021/01/15 01:47:59;;;;;;;0.00;0.00;;;15.50;58.70;;;;;;4195969;28;20052;-41
2021/01/15 01:50:20;;;;;;;0.00;0.00;;;15.50;58.90;;;;;;4196046;28;20056;-40
2021/01/15 01:52:43;;;;;;;0.00;0.00;;;15.70;58.50;;;;;;4196314;28;20466;-40
2021/01/15 01:55:06;;;;;;;0.00;0.00;;;16.00;57.80;;;;;;4195578;28;20136;-40
2021/01/15 01:57:27;;;;;;;0.50;0.50;;;16.20;57.20;;;;;;4195544;28;20147;-40
2021/01/15 01:59:48;;;;;;;;;;;16.20;56.90;;;;;;4195938;28;20059;-41
2021/01/15 02:02:09;;;;;;;0.15;0.15;;;16.20;57.00;;;;;;4195860;28;19920;-40
2021/01/15 02:04:30;;;;;;;;;;;16.20;57.00;;;;;;4195827;28;20052;-41
2021/01/15 02:06:51;;;;;;;4.85;0.47;;;16.10;57.10;;;;;;4195210;28;19963;-40
2021/01/15 02:09:12;;;;;;;0.08;0.08;;;16.10;57.20;;;;;;4196073;28;20052;-41
2021/01/15 02:11:41;;;;;;;0.00;0.00;;;16.00;57.30;;;;;;4195755;28;20056;-41
2021/01/15 02:14:08;;;;;;;0.13;0.13;;;15.90;57.70;;;;;;4195536;28;20078;-40
2021/01/15 02:16:30;;;;;;;0.00;0.00;;;15.80;57.80;;;;;;4195829;28;20052;-40
2021/01/15 02:18:56;;;;;;;0.00;0.00;;;15.80;58.00;;;;;;4195286;28;20048;-40
2021/01/15 02:22:03;;;;;;;0.00;0.00;;;15.90;57.80;;;;;;4195538;28;20048;-40
2021/01/15 02:24:53;;;;;;;0.00;0.00;;;16.00;57.60;;;;;;4144046;28;20137;-41
2021/01/15 02:27:32;;;;;;;0.00;0.00;;;15.90;57.50;;;;;;4187736;28;20049;-40
2021/01/15 02:30:09;;;;;;;0.00;0.00;;;15.90;57.60;;;;;;4195654;28;20075;-40
2021/01/15 02:32:43;;;;;;;1.27;0.43;;;15.90;57.50;;;;;;4195565;28;20052;-40
2021/01/15 02:35:23;;;;;;;0.00;0.00;;;15.80;57.60;;;;;;4198108;28;20041;-40
2021/01/15 02:38:02;;;;;;;0.00;0.00;;;15.80;57.90;;;;;;4182241;28;20053;-42
2021/01/15 02:40:30;;;;;;;0.10;0.10;;;15.80;57.80;;;;;;4182085;28;20110;-40
2021/01/15 02:42:53;;;;;;;1.38;1.27;;;15.90;57.50;;;;;;4180898;28;20517;-42
2021/01/15 02:45:14;;;;;;;0.00;0.00;;;15.90;57.30;;;;;;4190772;28;20530;-42
2021/01/15 02:47:47;;;;;;;0.03;0.03;;;15.90;57.30;;;;;;4198672;28;20140;-41
2021/01/15 02:50:11;;;;;;;0.10;0.10;;;16.00;57.40;;;;;;4198629;28;20060;-42
2021/01/15 02:52:32;;;;;;;0.00;0.00;;;16.00;57.30;;;;;;4198490;28;20498;-42
2021/01/15 02:54:53;;;;;;;0.00;0.00;;;15.90;57.30;;;;;;4198302;28;20056;-41
2021/01/15 02:57:15;;;;;;;0.00;0.00;;;15.90;57.50;;;;;;4198432;28;20052;-42
2021/01/15 02:59:35;;;;;;;0.40;0.40;;;15.80;57.50;;;;;;4198096;28;20063;-42
2021/01/15 03:02:04;;;;;;;0.80;0.80;;;15.90;57.50;;;;;;4198290;28;20048;-42
2021/01/15 03:04:34;;;;;;;0.50;0.50;;;15.80;57.40;;;;;;4197984;28;20106;-41
2021/01/15 03:06:59;;;;;;;0.55;0.55;;;15.80;57.50;;;;;;4198474;28;20048;-41
2021/01/15 03:09:20;;;;;;;0.00;0.00;;;15.70;57.60;;;;;;4198560;28;20048;-40
2021/01/15 03:11:42;;;;;;;0.05;0.05;;;15.70;57.90;;;;;;4198258;28;20055;-42
2021/01/15 03:14:07;;;;;;;0.00;0.00;;;15.70;58.70;;;;;;4196803;28;20056;-42
2021/01/15 03:16:30;;;;;;;0.00;0.00;;;15.80;57.80;;;;;;4198215;28;20045;-40
2021/01/15 03:18:51;;;;;;;0.10;0.10;;;15.90;58.10;;;;;;4197097;28;20472;-42
2021/01/15 03:21:13;;;;;;;0.00;0.00;;;16.10;57.00;;;;;;4198608;28;20053;-42
2021/01/15 03:23:36;;;;;;;0.10;0.10;;;16.10;56.80;;;;;;4198098;28;20110;-40
2021/01/15 03:25:58;;;;;;;0.10;0.10;;;16.20;56.60;;;;;;4197902;28;20052;-39
2021/01/15 03:28:19;;;;;;;0.45;0.45;;;16.30;56.40;;;;;;4181906;28;20057;-42
2021/01/15 03:30:39;;;;;;;0.55;0.55;;;16.30;56.20;;;;;;4196015;28;20055;-42
2021/01/15 03:33:02;;;;;;;0.05;0.05;;;16.40;56.20;;;;;;4197922;28;20131;-40
2021/01/15 03:35:24;;;;;;;1.88;0.80;;;16.50;56.00;;;;;;4198344;28;20578;-42
2021/01/15 03:37:45;;;;;;;0.40;0.40;;;16.60;55.60;;;;;;4197794;28;20044;-42
2021/01/15 03:40:07;;;;;;;0.85;0.85;;;16.70;55.40;;;;;;4197526;28;20135;-43
2021/01/15 03:42:28;;;;;;;0.05;0.05;;;16.70;55.30;;;;;;4181180;28;20060;-42
2021/01/15 03:44:49;;;;;;;0.20;0.20;;;16.60;55.50;;;;;;4188334;28;20052;-42
2021/01/15 03:47:10;;;;;;;0.00;0.00;;;16.50;55.70;;;;;;4198493;28;20074;-42
2021/01/15 03:49:31;;;;;;;0.10;0.10;;;16.40;56.00;;;;;;4197447;28;20143;-42
2021/01/15 03:51:52;;;;;;;0.10;0.10;;;16.20;56.30;;;;;;4197677;28;20067;-42
2021/01/15 03:54:14;;;;;;;0.00;0.00;;;16.10;56.60;;;;;;4198064;28;20056;-43
2021/01/15 03:56:34;;;;;;;2.40;1.10;;;16.10;56.90;;;;;;4197191;28;20060;-42
2021/01/15 03:58:56;;;;;;;0.10;0.10;;;16.10;56.70;;;;;;4197233;28;20057;-42
2021/01/15 04:01:17;;;;;;;0.43;0.43;;;16.20;56.50;;;;;;4197059;28;20084;-43
2021/01/15 04:03:38;;;;;;;0.00;0.00;;;16.20;56.40;;;;;;4197549;28;20418;-42
2021/01/15 04:05:59;;;;;;;0.40;0.40;;;16.20;56.50;;;;;;4197678;28;20052;-42
2021/01/15 04:08:20;;;;;;;0.75;0.75;;;16.10;56.50;;;;;;4197915;28;20045;-45
2021/01/15 04:10:42;;;;;;;0.00;0.00;;;16.10;56.70;;;;;;4197051;28;20045;-42
2021/01/15 04:13:03;;;;;;;0.10;0.10;;;16.20;56.70;;;;;;4197311;28;20083;-41
2021/01/15 04:15:24;;;;;;;0.10;0.10;;;16.20;56.40;;;;;;4197121;28;20135;-42
2021/01/15 04:17:45;;;;;;;0.10;0.10;;;16.20;56.40;;;;;;4197531;28;20056;-42
2021/01/15 04:20:09;;;;;;;0.20;0.20;;;16.20;56.40;;;;;;4197310;28;20068;-41
2021/01/15 04:22:33;;;;;;;2.72;0.52;;;16.30;56.30;;;;;;4197136;28;20056;-42
2021/01/15 04:24:54;;;;;;;0.65;0.52;;;16.30;56.20;;;;;;4197245;28;20075;-42
2021/01/15 04:27:18;;;;;;;0.00;0.00;;;16.30;56.20;;;;;;4197327;28;20529;-44
2021/01/15 04:29:38;;;;;;;0.70;0.70;;;16.20;56.30;;;;;;4197282;28;20514;-40
2021/01/15 04:31:59;;;;;;;0.03;0.03;;;16.10;56.50;;;;;;4196936;28;20521;-42
2021/01/15 04:34:20;;;;;;;0.10;0.10;;;16.00;56.70;;;;;;4196895;28;20052;-44
2021/01/15 04:36:42;;;;;;;0.43;0.43;;;16.00;56.90;;;;;;4196897;28;20052;-45
2021/01/15 04:39:04;;;;;;;0.25;0.22;;;15.90;57.10;;;;;;4197041;28;20049;-42
2021/01/15 04:41:28;;;;;;;0.00;0.00;;;15.80;57.40;;;;;;4197200;28;20859;-42
2021/01/15 04:43:54;;;;;;;0.17;0.17;;;15.80;57.40;;;;;;4181343;28;20053;-42
2021/01/15 04:46:15;;;;;;;7.68;1.55;;;15.90;57.20;;;;;;4197101;28;20045;-42
2021/01/15 04:48:41;;;;;;;0.20;0.20;;;16.10;56.80;;;;;;4197119;28;20106;-42
2021/01/15 04:51:03;;;;;;;0.08;0.08;;;16.30;56.40;;;;;;4196499;28;20118;-43
2021/01/15 04:53:25;;;;;;;0.22;0.22;;;16.40;56.00;;;;;;4196514;28;20049;-42
2021/01/15 04:55:48;;;;;;;0.47;0.10;;;16.50;55.60;;;;;;4196215;28;20055;-42
2021/01/15 04:58:10;;;;;;;0.20;0.20;;;16.60;55.50;;;;;;4196337;28;20052;-42
2021/01/15 05:00:32;;;;;;;3.00;0.95;;;16.50;55.50;;;;;;4196198;28;20498;-42
2021/01/15 05:02:54;;;;;;;0.00;0.00;;;16.40;55.70;;;;;;4196447;28;20513;-41
2021/01/15 05:05:24;;;;;;;0.82;0.82;;;16.40;55.90;;;;;;4196750;28;20052;-42
2021/01/15 05:08:09;;;;;;;0.10;0.10;;;16.40;55.90;;;;;;4195243;28;20098;-40
2021/01/15 05:10:36;;;;;;;0.13;0.13;;;16.40;55.80;;;;;;4196277;28;20425;-43
2021/01/15 05:12:57;;;;;;;0.20;0.20;;;16.50;55.70;;;;;;4196737;28;20695;-42
2021/01/15 05:15:19;;;;;;;0.10;0.10;;;16.50;55.70;;;;;;4195474;28;20064;-43
2021/01/15 05:17:41;;;;;;;0.00;0.00;;;16.50;55.60;;;;;;4196771;28;20134;-42
2021/01/15 05:20:03;;;;;;;0.30;0.30;;;16.60;55.30;;;;;;4196511;28;20686;-42
2021/01/15 05:22:25;;;;;;;0.70;0.70;;;16.80;55.00;;;;;;4196240;28;20425;-42
2021/01/15 05:24:45;;;;;;;0.03;0.03;;;16.90;54.60;;;;;;4196232;28;20138;-42
2021/01/15 05:27:38;;;;;;;0.20;0.20;;;16.90;54.40;;;;;;4195990;28;20082;-41
2021/01/15 05:30:15;;;;;;;0.10;0.10;;;16.90;54.60;;;;;;4196052;28;20561;-40
2021/01/15 05:32:35;;;;;;;0.00;0.00;;;16.80;54.80;;;;;;4196235;28;20113;-39
2021/01/15 05:34:57;;;;;;;0.00;0.00;;;16.60;55.00;;;;;;4196253;28;20110;-42
2021/01/15 05:37:21;;;;;;;0.45;0.45;;;16.60;55.40;;;;;;4179475;28;20075;-41
2021/01/15 05:39:43;;;;;;;0.08;0.08;;;16.40;55.70;;;;;;4179797;28;20049;-42
2021/01/15 05:42:05;;;;;;;0.30;0.30;;;16.30;56.10;;;;;;4179560;28;20049;-42
2021/01/15 05:44:28;;;;;;;0.10;0.10;;;16.20;56.40;;;;;;4187019;28;20048;-40
2021/01/15 05:46:49;;;;;;;0.03;0.03;;;16.20;56.30;;;;;;4195959;28;20063;-40
2021/01/15 05:49:11;;;;;;;0.22;0.22;;;16.30;56.10;;;;;;4196470;28;20068;-43
2021/01/15 05:51:33;;;;;;;0.05;0.05;;;16.50;55.80;;;;;;4195939;28;20458;-43
2021/01/15 05:53:55;;;;;;;0.63;0.63;;;16.60;55.50;;;;;;4195689;28;20505;-42
2021/01/15 05:56:16;;;;;;;0.00;0.00;;;16.60;55.30;;;;;;4195432;28;20135;-43
2021/01/15 05:58:37;;;;;;;0.38;0.38;;;16.60;55.30;;;;;;4195654;28;20048;-42
2021/01/15 06:00:58;;;;;;;1.10;1.08;;;16.50;55.50;;;;;;4179683;28;20064;-41
2021/01/15 06:03:22;;;;;;;0.10;0.10;;;16.50;55.50;;;;;;4179268;28;20057;-42
2021/01/15 06:05:49;;;;;;;0.20;0.20;;;16.60;55.40;;;;;;4179024;28;20779;-42
2021/01/15 06:08:12;;;;;;;0.52;0.52;;;16.60;55.30;;;;;;4178849;28;20049;-40
2021/01/15 06:10:45;;;;;;;0.30;0.30;;;16.60;55.40;;;;;;4178975;28;20119;-43
2021/01/15 06:13:06;;;;;;;0.10;0.10;;;16.50;55.50;;;;;;4191820;28;20063;-42
2021/01/15 06:15:44;;;;;;;0.00;0.00;;;16.40;55.80;;;;;;4195579;28;20052;-40
2021/01/15 06:18:05;;;;;;;0.05;0.05;;;16.40;55.90;;;;;;4195919;28;20084;-40
2021/01/15 06:20:26;;;;;;;0.00;0.00;;;16.40;55.90;;;;;;4195409;28;20097;-40
2021/01/15 06:22:48;;;;;;;0.00;0.00;;;16.30;56.00;;;;;;4195787;28;20517;-42
2021/01/15 06:25:25;;;;;;;0.30;0.30;;;16.20;56.20;;;;;;4195669;28;20349;-42
2021/01/15 06:27:47;;;;;;;0.00;0.00;;;16.20;56.40;;;;;;4191590;28;20139;-42
2021/01/15 06:30:13;;;;;;;0.30;0.30;;;16.20;56.30;;;;;;4195305;28;20395;-42
2021/01/15 06:32:34;;;;;;;0.32;0.32;;;16.30;56.30;;;;;;4195431;28;20057;-43
2021/01/15 06:34:55;;;;;;;0.10;0.10;;;16.30;56.10;;;;;;4195459;28;20056;-43
2021/01/15 06:37:21;;;;;;;0.10;0.10;;;16.30;56.90;;;;;;4195410;28;20060;-41
2021/01/15 06:39:59;;;;;;;0.28;0.28;;;16.30;56.10;;;;;;4195089;28;20059;-42
2021/01/15 06:42:28;;;;;;;0.00;0.00;;;16.20;56.00;;;;;;4195377;28;20113;-41
2021/01/15 06:44:54;;;;;;;0.00;0.00;;;16.10;56.20;;;;;;4194392;28;20059;-42
2021/01/15 06:47:22;;;;;;;0.30;0.30;;;16.10;56.50;;;;;;4195363;28;20565;-39
2021/01/15 06:49:49;;;;;;;0.38;0.25;;;16.00;56.50;;;;;;4195105;28;20086;-43
2021/01/15 06:52:13;;;;;;;0.88;0.80;;;16.20;56.60;;;;;;4195484;28;20049;-41
2021/01/15 06:54:35;;;;;;;0.30;0.30;;;16.40;56.30;;;;;;4195309;28;20049;-44
2021/01/15 06:57:12;;;;;;;0.10;0.10;;;16.60;55.60;;;;;;4194658;28;20414;-42
2021/01/15 06:59:37;;;;;;;0.10;0.10;;;16.60;55.20;;;;;;4177431;28;20115;-42
2021/01/15 07:02:10;;;;;;;0.68;0.68;;;16.60;55.30;;;;;;4184916;28;20052;-42
2021/01/15 07:05:00;;;;;;;0.00;0.00;;;16.60;55.30;;;;;;4195736;28;20041;-41
2021/01/15 07:07:21;;;;;;;0.03;0.03;;;16.70;55.10;;;;;;4194207;28;20165;-40
2021/01/15 07:09:44;;;;;;;0.00;0.00;;;16.60;55.10;;;;;;4195079;28;20106;-44
2021/01/15 07:12:09;;;;;;;0.55;0.55;;;16.60;55.30;;;;;;4193957;28;20138;-40
2021/01/15 07:14:44;;;;;;;0.00;0.00;;;16.70;55.40;;;;;;4187192;28;20131;-41
2021/01/15 07:17:14;;;;;;;0.10;0.10;;;16.80;55.30;;;;;;4195256;28;20477;-40
2021/01/15 07:19:36;;;;;;;0.00;0.00;;;16.90;55.10;;;;;;4196452;28;20048;-41
2021/01/15 07:22:08;;;;;;;0.32;0.25;;;16.90;55.00;;;;;;4198284;28;20056;-41
2021/01/15 07:24:33;;;;;;;0.08;0.08;;;16.90;55.00;;;;;;4198018;28;20052;-41
2021/01/15 07:26:54;;;;;;;1.02;1.02;;;16.80;55.30;;;;;;4198054;28;20052;-41
2021/01/15 07:29:17;;;;;;;0.15;0.15;;;16.60;55.60;;;;;;4198091;28;20449;-41
2021/01/15 07:31:41;;;;;;;0.00;0.00;;;16.50;56.10;;;;;;4198127;28;20049;-41
2021/01/15 07:34:05;;;;;;;0.10;0.10;;;16.40;56.30;;;;;;4197085;28;20911;-41
2021/01/15 07:36:34;;;;;;;0.10;0.10;;;16.40;56.40;;;;;;4198015;28;20056;-42
2021/01/15 07:39:10;;;;;;;0.00;0.00;;;16.40;56.30;;;;;;4197924;28;20076;-41
2021/01/15 07:41:42;;;;;;;0.40;0.40;;;16.40;56.20;;;;;;4196842;28;20048;-42
2021/01/15 07:44:36;;;;;;;0.00;0.00;;;16.40;56.20;;;;;;4197814;28;20045;-42
2021/01/15 07:46:59;;;;;;;0.00;0.00;;;16.40;56.40;;;;;;4197888;28;20075;-41
2021/01/15 07:49:21;;;;;;;0.00;0.00;;;16.30;57.30;;;;;;4197671;28;20498;-41
2021/01/15 07:51:42;;;;;;;0.00;0.00;;;16.20;56.80;;;;;;4197964;28;20053;-41
2021/01/15 07:54:03;;;;;;;0.15;0.15;;;16.30;56.80;;;;;;4197558;28;20507;-41
2021/01/15 07:56:27;;;;;;;0.00;0.00;;;16.30;56.60;;;;;;4197608;28;20135;-41
2021/01/15 07:58:48;;;;;;;0.00;0.00;;;16.30;56.60;;;;;;4197729;28;20060;-40
2021/01/15 08:01:11;;;;;;;1.15;1.15;;;16.30;56.70;;;;;;4197671;28;20065;-41
2021/01/15 08:03:40;;;;;;;0.10;0.10;;;16.20;56.80;;;;;;4197689;28;20123;-43
2021/01/15 08:06:02;;;;;;;0.10;0.10;;;16.30;56.80;;;;;;4197629;28;20513;-41
2021/01/15 08:08:24;;;;;;;0.52;0.52;;;16.30;56.80;;;;;;4197498;28;20546;-41
2021/01/15 08:10:48;;;;;;;0.00;0.00;;;16.20;57.70;;;;;;4197527;28;20056;-41
2021/01/15 08:13:16;;;;;;;0.00;0.00;;;16.10;57.20;;;;;;4197529;28;20053;-40
2021/01/15 08:15:37;;;;;;;0.00;0.00;;;16.00;57.80;;;;;;4195996;28;20520;-41
2021/01/15 08:18:02;;;;;;;0.10;0.10;;;16.00;61.90;;;;;;4197415;28;20057;-41
2021/01/15 08:20:24;;;;;;;0.00;0.00;;;16.10;60.50;;;;;;4197291;28;20794;-43
2021/01/15 08:22:47;;;;;;;0.00;0.00;;;16.30;59.70;;;;;;4197328;28;20506;-41
2021/01/15 08:25:10;;;;;;;0.00;0.00;;;16.40;58.90;;;;;;4197362;28;20052;-40
2021/01/15 08:27:34;;;;;;;0.00;0.00;;;16.50;58.30;;;;;;4197165;28;20076;-41
2021/01/15 08:30:04;;;;;;;5.07;1.45;;;16.50;57.90;;;;;;4196809;28;20083;-41
2021/01/15 08:32:25;;;;;;;0.03;0.03;;;16.60;57.80;;;;;;4180308;28;20080;-40
2021/01/15 08:34:46;;;;;;;0.00;0.00;;;16.70;57.40;;;;;;4185591;28;20101;-41
2021/01/15 08:37:10;;;;;;;0.13;0.13;;;16.80;56.80;;;;;;4197101;28;20422;-44
2021/01/15 08:39:43;;;;;;;0.10;0.10;;;17.00;56.40;;;;;;4196697;28;20056;-40
2021/01/15 08:42:05;;;;;;;0.10;0.10;;;17.00;56.20;;;;;;4195804;28;20131;-40
2021/01/15 08:44:34;;;;;;;0.00;0.00;;;16.90;56.30;;;;;;4195834;28;20102;-41
2021/01/15 08:46:56;;;;;;;0.00;0.00;;;16.90;56.50;;;;;;4190449;28;20075;-41
2021/01/15 08:49:17;;;;;;;0.00;0.00;;;16.90;56.80;;;;;;4194368;28;20044;-40
2021/01/15 08:51:39;;;;;;;0.00;0.00;;;16.80;57.00;;;;;;4195889;28;20410;-40
2021/01/15 08:54:05;;;;;;;0.00;0.00;;;16.70;57.30;;;;;;4196376;28;20064;-40
2021/01/15 08:56:32;;;;;;;0.00;0.00;;;16.60;57.40;;;;;;4196571;28;20053;-40
2021/01/15 08:58:53;;;;;;;0.15;0.15;;;16.60;57.60;;;;;;4196384;28;20048;-40
2021/01/15 09:01:29;;;;;;;0.10;0.10;;;16.50;57.70;;;;;;4194635;28;20057;-40
2021/01/15 09:03:53;;;;;;;0.47;0.47;;;16.40;58.10;;;;;;4187626;28;20053;-40
2021/01/15 09:06:15;;;;;;;0.10;0.10;;;16.40;58.20;;;;;;4195859;28;20052;-39
2021/01/15 09:08:39;;;;;;;0.00;0.00;;;16.40;58.00;;;;;;4185257;28;20060;-40
2021/01/15 09:11:02;;;;;;;0.10;0.10;;;16.40;57.80;;;;;;4195884;28;20061;-40
2021/01/15 09:13:23;;;;;;;0.32;0.20;;;16.40;57.90;;;;;;4195338;28;20502;-49
2021/01/15 09:15:49;;;;;;;1.70;1.60;;;16.40;58.00;;;;;;4195141;28;20052;-41
2021/01/15 09:18:10;;;;;;;0.00;0.00;;;16.30;58.20;;;;;;4195757;28;20483;-40
2021/01/15 09:20:32;;;;;;;0.10;0.10;;;16.20;58.40;;;;;;4194843;28;20188;-40
2021/01/15 09:22:53;;;;;;;1.38;0.63;;;16.30;58.40;;;;;;4195856;28;20523;-40
2021/01/15 09:25:16;;;;;;;0.65;0.65;;;16.40;58.00;;;;;;4193807;28;20078;-40
2021/01/15 09:27:39;;;;;;;0.35;0.20;;;16.50;57.60;;;;;;4196076;28;20128;-40
2021/01/15 09:29:59;;;;;;;0.13;0.13;;;16.50;57.50;;;;;;4196255;28;20395;-42
2021/01/15 09:32:21;;;;;;;0.00;0.00;;;16.50;57.50;;;;;;4196110;28;20060;-41
2021/01/15 09:34:42;;;;;;;0.00;0.00;;;16.50;57.30;;;;;;4195254;28;20048;-39
2021/01/15 09:37:03;;;;;;;0.25;0.25;;;16.50;57.30;;;;;;4192311;28;20101;-42
2021/01/15 09:39:26;;;;;;;0.00;0.00;;;16.50;57.50;;;;;;4195547;28;20049;-40
2021/01/15 09:41:49;;;;;;;0.47;0.47;;;16.40;57.60;;;;;;4194746;28;20477;-40
2021/01/15 09:44:12;;;;;;;0.47;0.47;;;16.40;57.70;;;;;;4195472;28;20489;-40
2021/01/15 09:46:33;;;;;;;0.45;0.45;;;16.30;57.60;;;;;;4195147;28;20567;-40
2021/01/15 09:48:55;;;;;;;;;;;16.30;57.60;;;;;;4196097;28;20040;-43
2021/01/15 09:51:16;;;;;;;1.15;0.85;;;16.20;57.70;;;;;;4196200;28;19928;-42
2021/01/15 09:53:37;;;;;;;0.10;0.10;;;16.00;57.90;;;;;;4195752;28;20526;-43
2021/01/15 09:55:58;;;;;;;0.52;0.45;;;16.00;58.30;;;;;;4195702;28;20521;-42
2021/01/15 09:58:19;;;;;;;0.00;0.00;;;15.90;58.40;;;;;;4195997;28;20490;-42
2021/01/15 10:00:41;;;;;;;0.00;0.00;;;15.90;58.60;;;;;;4194963;28;20573;-39
2021/01/15 10:03:02;;;;;;;0.00;0.00;;;15.80;58.90;;;;;;4195815;28;20506;-42
2021/01/15 10:05:23;;;;;;;0.30;0.30;;;15.70;59.10;;;;;;4195907;28;20453;-42
2021/01/15 10:07:44;;;;;;;0.00;0.00;;;15.60;59.30;;;;;;4195668;28;20436;-42
2021/01/15 10:10:08;;;;;;;0.00;0.00;;;15.60;59.30;;;;;;4195394;28;20138;-40
2021/01/15 10:12:29;;;;;;;0.00;0.00;;;15.80;59.00;;;;;;4195609;28;20067;-43
2021/01/15 10:14:50;;;;;;;6.68;2.42;;;16.10;58.30;;;;;;4195532;28;20618;-41
2021/01/15 10:17:12;;;;;;;0.10;0.10;;;16.30;57.60;;;;;;4196262;28;20060;-44
2021/01/15 10:19:42;;;;;;;0.28;0.28;;;16.30;57.20;;;;;;4195431;28;20052;-42
2021/01/15 10:22:03;;;;;;;0.47;0.47;;;16.30;57.10;;;;;;4195543;28;20122;-42
2021/01/15 10:24:24;;;;;;;0.00;0.00;;;16.10;57.10;;;;;;4187216;28;20048;-42
2021/01/15 10:26:44;;;;;;;1.25;1.25;;;16.00;57.30;;;;;;4184332;28;20052;-42
2021/01/15 10:29:06;;;;;;;;;;;15.90;57.60;;;;;;4190908;28;20051;-42
2021/01/15 10:31:28;;;;;;;0.00;0.00;;;15.80;57.90;;;;;;4195676;28;20401;-42
2021/01/15 10:33:50;;;;;;;0.30;0.30;;;15.70;57.90;;;;;;4195387;28;20417;-40
2021/01/15 10:36:11;;;;;;;0.10;0.10;;;15.50;58.00;;;;;;4195665;28;20513;-41
2021/01/15 10:38:32;;;;;;;0.05;0.05;;;15.40;58.40;;;;;;4194964;28;20040;-42
2021/01/15 10:40:53;;;;;;;0.00;0.00;;;15.30;58.40;;;;;;4188773;28;20048;-42
2021/01/15 10:43:14;;;;;;;1.38;1.08;;;15.20;58.50;;;;;;4194955;28;20062;-42
2021/01/15 10:45:35;;;;;;;0.40;0.40;;;15.30;58.40;;;;;;4195573;28;20048;-42
2021/01/15 10:47:56;;;;;;;1.45;1.13;;;15.20;58.30;;;;;;4185963;28;20369;-42
2021/01/15 10:50:18;;;;;;;;;;;15.20;58.20;;;;;;4188177;28;20102;-42
2021/01/15 10:52:39;;;;;;;0.03;0.03;;;15.20;58.20;;;;;;4186363;28;19921;-42
2021/01/15 10:55:00;;;;;;;0.00;0.00;;;15.20;58.30;;;;;;4193950;28;20051;-40
2021/01/15 10:57:21;;;;;;;0.57;0.57;;;15.30;58.00;;;;;;4191528;28;20052;-40
2021/01/15 10:59:42;;;;;;;;;;;15.30;58.10;;;;;;4197502;28;20052;-40
2021/01/15 11:02:04;;;;;;;0.32;0.32;;;15.40;57.70;;;;;;4192827;28;19924;-42
2021/01/15 11:04:25;;;;;;;0.00;0.00;;;15.50;57.30;;;;;;4189340;28;20814;-42
2021/01/15 11:06:52;;;;;;;0.40;0.40;;;15.70;57.00;;;;;;4189325;28;20049;-42
2021/01/15 11:09:15;;;;;;;1.05;1.05;;;15.80;56.80;;;;;;4189119;28;20118;-40
2021/01/15 11:11:52;;;;;;;0.08;0.08;;;15.80;56.80;;;;;;4190972;28;20060;-41
2021/01/15 11:14:14;;;;;;;0.00;0.00;;;15.70;57.00;;;;;;4189086;28;20056;-43
2021/01/15 11:16:35;;;;;;;1.98;1.55;;;15.60;57.00;;;;;;4191462;28;20457;-42
2021/01/15 11:18:56;;;;;;;0.00;0.00;;;15.50;57.30;;;;;;4191834;28;20127;-40
2021/01/15 11:21:23;;;;;;;0.20;0.20;;;15.40;57.60;;;;;;4188654;28;20053;-40
2021/01/15 11:23:45;;;;;;;0.35;0.35;;;15.20;57.90;;;;;;4188659;28;20058;-40
2021/01/15 11:26:06;;;;;;;0.00;0.00;;;15.20;58.40;;;;;;4192351;28;20650;-42
2021/01/15 11:28:27;;;;;;;0.00;0.00;;;15.20;58.50;;;;;;4192750;28;20060;-42
2021/01/15 11:30:49;;;;;;;0.10;0.10;;;15.30;58.60;;;;;;4189310;28;20049;-40
2021/01/15 11:33:10;;;;;;;0.20;0.20;;;15.30;58.40;;;;;;4192203;28;20064;-42
2021/01/15 11:35:41;;;;;;;0.10;0.10;;;15.30;58.60;;;;;;4195731;28;20056;-42
2021/01/15 11:38:02;;;;;;;;;;;15.30;58.70;;;;;;4191467;28;20797;-42
2021/01/15 11:40:25;;;;;;;1.10;0.80;;;15.20;58.60;;;;;;4190119;28;19920;-43
2021/01/15 11:42:47;;;;;;;0.00;0.00;;;15.20;58.60;;;;;;4188844;28;20378;-40
2021/01/15 11:45:09;;;;;;;0.10;0.10;;;15.20;58.70;;;;;;4188365;28;20041;-40
2021/01/15 11:47:29;;;;;;;0.20;0.20;;;15.20;58.60;;;;;;4193989;28;20121;-41
2021/01/15 11:49:50;;;;;;;0.03;0.03;;;15.10;58.80;;;;;;4192410;28;20489;-42
2021/01/15 11:52:12;;;;;;;0.10;0.10;;;15.00;58.90;;;;;;4194903;28;20113;-40
2021/01/15 11:54:33;;;;;;;0.08;0.08;;;15.00;59.10;;;;;;4188895;28;20531;-39
2021/01/15 11:56:56;;;;;;;0.22;0.22;;;14.90;59.30;;;;;;4195204;28;20052;-40
2021/01/15 11:59:17;;;;;;;0.17;0.17;;;14.90;59.60;;;;;;4196366;28;20044;-40
2021/01/15 12:01:38;;;;;;;0.00;0.00;;;15.00;59.60;;;;;;4193103;28;20052;-40
2021/01/15 12:03:59;;;;;;;0.00;0.00;;;15.30;59.00;;;;;;4189564;28;20450;-40
2021/01/15 12:06:21;;;;;;;0.68;0.68;;;15.50;58.40;;;;;;4186979;28;20452;-39
2021/01/15 12:08:42;;;;;;;0.00;0.00;;;15.60;58.00;;;;;;4188712;28;20055;-42
2021/01/15 12:11:05;;;;;;;0.28;0.28;;;15.60;57.80;;;;;;4196688;28;20052;-39
2021/01/15 12:13:26;;;;;;;0.00;0.00;;;15.70;57.90;;;;;;4197150;28;20071;-40
2021/01/15 12:15:48;;;;;;;0.10;0.10;;;15.60;58.00;;;;;;4196958;28;20780;-46
2021/01/15 12:18:13;;;;;;;0.13;0.13;;;15.60;58.30;;;;;;4197472;28;20056;-40
2021/01/15 12:20:37;;;;;;;0.10;0.10;;;15.50;58.50;;;;;;4196809;28;20129;-40
2021/01/15 12:22:58;;;;;;;0.75;0.75;;;15.50;58.60;;;;;;4196729;28;20044;-39
2021/01/15 12:25:19;;;;;;;0.00;0.00;;;15.60;58.40;;;;;;4197159;28;20587;-40
2021/01/15 12:27:40;;;;;;;0.52;0.52;;;15.70;58.40;;;;;;4196431;28;20052;-40
2021/01/15 12:30:02;;;;;;;0.32;0.32;;;15.70;58.50;;;;;;4197099;28;20055;-39
2021/01/15 12:32:23;;;;;;;0.00;0.00;;;15.70;58.50;;;;;;4196995;28;20057;-41